Time;durP1;ratioP1;P1;durP2;ratioP2;P2;SDS_P1;SDS_P2;PMS_P1;PMS_P2;Temp;Humidity;BMP_temperature;BMP_pressure;BME280_temperature;BME280_humidity;BME280_pressure;Samples;Min_cycle;Max_cycle;Signal;HPM_P1;HPM_P2
2021/03/18 00:01:45;;;;;;;12.13;5.53;;;;;;;-0.16;72.09;101061.56;1703581;82;25935;-76
2021/03/18 00:04:16;;;;;;;12.50;5.33;;;;;;;-0.17;72.27;101066.48;1715769;82;25739;-76
2021/03/18 00:06:45;;;;;;;12.10;6.03;;;;;;;-0.18;72.50;101062.15;1691815;83;26118;-76
2021/03/18 00:09:17;;;;;;;11.50;5.87;;;;;;;-0.20;72.58;101066.68;1713701;82;26095;-76
2021/03/18 00:11:48;;;;;;;10.05;6.10;;;;;;;-0.22;72.82;101063.31;1728578;81;27349;-76
2021/03/18 00:14:19;;;;;;;12.18;5.60;;;;;;;-0.24;72.81;101062.58;1727086;81;25363;-76
2021/03/18 00:16:46;;;;;;;9.85;5.00;;;;;;;-0.29;73.10;101065.53;1681843;82;25778;-76
2021/03/18 00:19:14;;;;;;;10.93;5.53;;;;;;;-0.31;73.26;101062.16;1685224;81;25788;-76
2021/03/18 00:21:41;;;;;;;13.22;5.47;;;;;;;-0.33;73.30;101065.38;1710092;81;25885;-76
2021/03/18 00:24:10;;;;;;;12.05;4.75;;;;;;;-0.33;73.50;101064.53;1726009;81;27603;-76
2021/03/18 00:26:37;;;;;;;13.13;6.58;;;;;;;-0.35;73.54;101054.58;1690150;83;25974;-76
2021/03/18 00:29:06;;;;;;;9.18;4.25;;;;;;;-0.31;73.92;101065.27;1703606;82;25875;-76
2021/03/18 00:31:35;;;;;;;12.78;6.97;;;;;;;-0.31;73.98;101056.05;1701098;81;25852;-76
2021/03/18 00:34:04;;;;;;;11.78;5.58;;;;;;;-0.30;73.97;101049.35;1709588;82;25901;-76
2021/03/18 00:36:31;;;;;;;11.48;5.65;;;;;;;-0.27;73.98;101056.20;1682286;83;27644;-76
2021/03/18 00:39:00;;;;;;;12.93;5.33;;;;;;;-0.26;73.96;101053.48;1702287;83;26093;-76
2021/03/18 00:41:28;;;;;;;10.40;5.83;;;;;;;-0.23;74.23;101058.52;1714687;81;25800;-76
2021/03/18 00:43:55;;;;;;;12.93;6.60;;;;;;;-0.22;74.09;101044.42;1727302;81;25877;-76
2021/03/18 00:46:23;;;;;;;12.53;5.58;;;;;;;-0.28;74.08;101050.59;1740759;80;26106;-76
2021/03/18 00:48:51;;;;;;;13.18;6.08;;;;;;;-0.33;74.19;101050.91;1756435;80;28435;-76
2021/03/18 00:51:19;;;;;;;10.40;5.05;;;;;;;-0.36;74.42;101049.78;1707139;81;25779;-76
2021/03/18 00:53:48;;;;;;;12.53;5.53;;;;;;;-0.37;74.52;101046.80;1725950;82;25854;-76
2021/03/18 00:56:21;;;;;;;12.70;5.47;;;;;;;-0.34;74.56;101048.38;1752632;81;26652;-76
2021/03/18 00:58:51;;;;;;;9.73;5.17;;;;;;;-0.32;74.62;101053.06;1756793;80;25815;-76
2021/03/18 01:01:24;;;;;;;10.53;5.53;;;;;;;-0.31;74.66;101044.20;1777342;80;27523;-76
2021/03/18 01:03:52;;;;;;;10.28;5.17;;;;;;;-0.32;74.81;101042.54;1769589;80;25763;-76
2021/03/18 01:06:23;;;;;;;10.98;5.62;;;;;;;-0.37;74.88;101036.27;1732578;81;25826;-76
2021/03/18 01:08:53;;;;;;;11.43;5.75;;;;;;;-0.39;74.98;101037.33;1752911;80;25750;-76
2021/03/18 01:11:32;;;;;;;11.83;5.65;;;;;;;-0.42;75.06;101037.52;1773309;80;25831;-76
2021/03/18 01:14:05;;;;;;;11.43;5.37;;;;;;;-0.43;75.27;101038.48;1756039;80;27490;-76
2021/03/18 01:16:39;;;;;;;10.50;4.85;;;;;;;-0.44;75.68;101040.27;1759826;80;25785;-76
2021/03/18 01:19:09;;;;;;;15.05;6.03;;;;;;;-0.41;75.50;101039.22;1741699;80;25817;-76
2021/03/18 01:21:45;;;;;;;12.15;5.28;;;;;;;-0.47;75.54;101029.95;1773691;80;26232;-76
2021/03/18 01:24:14;;;;;;;9.43;5.65;;;;;;;-0.38;75.60;101035.89;1723261;80;25943;-77
2021/03/18 01:26:43;;;;;;;11.75;5.53;;;;;;;-0.38;75.67;101038.52;1758088;80;27541;-77
2021/03/18 01:29:12;;;;;;;11.88;6.00;;;;;;;-0.36;75.50;101035.78;1764818;80;25858;-76
2021/03/18 01:31:40;;;;;;;11.00;6.08;;;;;;;-0.33;75.86;101032.48;1776226;79;25714;-76
2021/03/18 01:34:07;;;;;;;11.22;5.40;;;;;;;-0.38;75.80;101021.42;1727745;80;25737;-76
2021/03/18 01:36:36;;;;;;;9.98;5.00;;;;;;;-0.38;75.66;101028.00;1719176;81;25727;-76
2021/03/18 01:39:06;;;;;;;11.45;6.30;;;;;;;-0.38;75.66;101028.00;1705274;82;27340;-76
2021/03/18 01:41:34;;;;;;;10.48;5.62;;;;;;;-0.34;75.77;101033.91;1705085;82;25771;-76
2021/03/18 01:44:03;;;;;;;11.80;5.65;;;;;;;-0.36;75.90;101029.20;1681289;82;25909;-76
2021/03/18 01:46:31;;;;;;;12.73;6.28;;;;;;;-0.37;75.78;101035.42;1692898;83;25925;-76
2021/03/18 01:48:59;;;;;;;12.20;5.97;;;;;;;-0.41;75.95;101032.64;1708323;82;26035;-76
2021/03/18 01:51:26;;;;;;;13.65;6.17;;;;;;;-0.45;76.11;101032.49;1742566;81;27536;-76
2021/03/18 01:53:53;;;;;;;15.13;6.78;;;;;;;-0.45;76.15;101033.80;1675636;83;26256;-77
2021/03/18 01:56:21;;;;;;;13.20;6.37;;;;;;;-0.55;76.31;101011.69;1721715;81;25414;-76
2021/03/18 01:58:48;;;;;;;17.23;6.70;;;;;;;-0.44;76.45;101030.21;1713437;82;25732;-76
2021/03/18 02:01:20;;;;;;;13.83;6.35;;;;;;;-0.50;76.53;101019.66;1735003;81;25747;-76
2021/03/18 02:03:48;;;;;;;12.10;6.53;;;;;;;-0.53;76.63;101025.11;1766674;79;27711;-76
2021/03/18 02:06:16;;;;;;;10.75;6.15;;;;;;;-0.55;76.71;101019.58;1759219;79;25714;-76
2021/03/18 02:08:44;;;;;;;11.80;5.97;;;;;;;-0.54;76.82;101019.50;1748311;79;25858;-76
2021/03/18 02:11:11;;;;;;;14.47;7.00;;;;;;;-0.52;76.82;101023.33;1777212;79;25802;-76
2021/03/18 02:13:38;;;;;;;11.65;7.12;;;;;;;-0.51;76.77;101021.08;1736808;79;25839;-76
2021/03/18 02:16:10;;;;;;;11.30;5.45;;;;;;;-0.54;76.72;101010.75;1718749;82;28427;-76
2021/03/18 02:19:13;;;;;;;12.13;7.17;;;;;;;-0.56;76.88;101006.92;1696297;82;25957;-76
2021/03/18 02:22:22;;;;;;;11.97;6.40;;;;;;;-0.55;76.77;101004.64;1734652;81;25692;-76
2021/03/18 02:25:16;;;;;;;15.65;8.33;;;;;;;-0.61;77.00;100995.87;1704152;82;25855;-76
2021/03/18 02:28:11;;;;;;;15.30;6.50;;;;;;;-0.62;77.19;101006.50;1702043;82;25833;-76
2021/03/18 02:31:07;;;;;;;13.10;7.10;;;;;;;-0.61;77.48;101006.86;1736117;82;27539;-76
2021/03/18 02:33:55;;;;;;;17.00;7.55;;;;;;;-0.62;77.50;101010.45;1711041;82;25897;-76
2021/03/18 02:36:36;;;;;;;12.60;6.95;;;;;;;-0.58;77.40;101011.92;1737335;81;25642;-76
2021/03/18 02:39:08;;;;;;;16.40;7.37;;;;;;;-0.54;77.44;101004.18;1677366;83;26410;-76
2021/03/18 02:41:44;;;;;;;12.68;6.95;;;;;;;-0.63;77.39;101006.97;1669217;83;26284;-76
2021/03/18 02:44:19;;;;;;;16.02;7.53;;;;;;;-0.63;77.39;101006.97;1670094;83;27278;-76
2021/03/18 02:46:52;;;;;;;13.45;7.08;;;;;;;-0.54;77.25;101017.33;1693451;83;25849;-76
2021/03/18 02:49:21;;;;;;;11.78;7.00;;;;;;;-0.51;77.47;101014.00;1715328;81;25776;-76
2021/03/18 02:51:49;;;;;;;14.95;7.87;;;;;;;-0.51;77.49;101009.24;1684329;83;26419;-76
2021/03/18 02:54:20;;;;;;;18.12;6.97;;;;;;;-0.50;77.60;100998.59;1683496;83;26061;-77
2021/03/18 02:56:51;;;;;;;14.33;7.55;;;;;;;-0.42;77.29;101019.95;1695755;83;28576;-75
2021/03/18 02:59:24;;;;;;;;;;;;;;;-0.42;77.29;101019.95;1652865;83;26035;-76
2021/03/18 03:01:52;;;;;;;15.50;7.78;;;;;;;-0.40;77.51;101015.89;1674700;84;25845;-76
2021/03/18 03:04:20;;;;;;;15.65;7.33;;;;;;;-0.42;77.66;101022.58;1690600;81;25921;-76
2021/03/18 03:06:49;;;;;;;20.12;7.17;;;;;;;-0.42;77.66;101022.58;1661702;83;26098;-76
2021/03/18 03:09:18;;;;;;;17.00;7.72;;;;;;;-0.43;77.68;101020.92;1669262;83;28463;-76
2021/03/18 03:11:46;;;;;;;15.00;7.67;;;;;;;-0.47;77.84;101028.62;1727702;81;26603;-76
2021/03/18 03:14:14;;;;;;;16.30;8.43;;;;;;;-0.45;77.97;101027.23;1739445;81;25785;-76
2021/03/18 03:16:42;;;;;;;16.23;8.48;;;;;;;-0.51;77.96;101013.19;1718308;81;25961;-77
2021/03/18 03:19:11;;;;;;;12.85;8.30;;;;;;;-0.42;78.57;101021.73;1716302;81;26131;-76
2021/03/18 03:21:39;;;;;;;12.98;7.33;;;;;;;-0.42;78.57;101021.73;1688212;83;27651;-77
2021/03/18 03:24:08;;;;;;;15.18;7.55;;;;;;;-0.51;79.55;101024.53;1648605;86;26704;-76
2021/03/18 03:26:38;;;;;;;19.00;9.55;;;;;;;-0.51;79.55;101024.53;1635692;83;25755;-77
2021/03/18 03:29:08;;;;;;;15.32;9.30;;;;;;;-0.52;79.29;101024.18;1692470;83;26074;-76
2021/03/18 03:31:35;;;;;;;18.23;8.67;;;;;;;-0.52;79.53;101025.49;1728446;81;25770;-76
2021/03/18 03:34:07;;;;;;;16.97;8.68;;;;;;;-0.52;79.83;101026.81;1711087;83;28450;-76
2021/03/18 03:36:34;;;;;;;19.37;10.78;;;;;;;-0.50;80.22;101020.11;1667082;83;26211;-76
2021/03/18 03:39:06;;;;;;;15.48;9.83;;;;;;;-0.51;80.13;101019.27;1625994;83;26350;-76
2021/03/18 03:41:34;;;;;;;13.83;9.33;;;;;;;-0.41;80.38;101017.70;1684678;83;25905;-76
2021/03/18 03:44:04;;;;;;;19.32;10.23;;;;;;;-0.41;80.38;101017.70;1693357;83;25924;-76
2021/03/18 03:46:32;;;;;;;17.62;8.85;;;;;;;-0.37;80.17;101020.95;1701625;83;27621;-76
2021/03/18 03:49:00;;;;;;;16.25;9.55;;;;;;;-0.35;80.98;101009.84;1677548;83;25831;-76
2021/03/18 03:52:13;;;;;;;20.77;10.10;;;;;;;-0.34;80.66;101011.54;1675293;83;25752;-76
2021/03/18 03:54:54;;;;;;;15.70;9.60;;;;;;;-0.33;81.00;101014.52;1696055;83;25822;-76
2021/03/18 03:57:30;;;;;;;18.35;11.08;;;;;;;-0.33;80.89;101007.94;1668173;84;25723;-76
2021/03/18 03:59:59;;;;;;;16.90;11.08;;;;;;;-0.28;80.72;101008.47;1691758;84;28470;-76
2021/03/18 04:02:30;;;;;;;16.17;10.45;;;;;;;-0.25;80.75;101013.50;1673199;83;26051;-76
2021/03/18 04:04:59;;;;;;;21.52;12.78;;;;;;;-0.25;80.37;101005.14;1694466;83;25926;-76
2021/03/18 04:07:33;;;;;;;19.32;11.88;;;;;;;-0.21;79.82;101009.23;1680173;83;26510;-76
2021/03/18 04:10:04;;;;;;;17.00;10.28;;;;;;;-0.21;79.82;101009.23;1691552;83;26107;-76
2021/03/18 04:12:39;;;;;;;15.78;10.38;;;;;;;-0.20;79.93;101006.98;1687302;83;27532;-76
2021/03/18 04:15:11;;;;;;;14.10;9.53;;;;;;;-0.19;79.89;101007.80;1681348;83;26448;-76
2021/03/18 04:17:44;;;;;;;18.87;11.22;;;;;;;-0.17;80.00;101007.25;1680785;83;25735;-76
2021/03/18 04:20:14;;;;;;;18.32;10.63;;;;;;;-0.16;79.87;101007.13;1692339;83;26399;-77
2021/03/18 04:22:46;;;;;;;15.43;10.58;;;;;;;-0.13;79.92;101011.34;1676713;83;25787;-76
2021/03/18 04:25:14;;;;;;;21.55;11.83;;;;;;;-0.11;79.80;101003.67;1694742;83;27557;-76
2021/03/18 04:27:42;;;;;;;18.90;10.88;;;;;;;-0.10;79.80;101002.73;1662127;83;25923;-77
2021/03/18 04:30:13;;;;;;;18.57;12.07;;;;;;;-0.08;79.74;101006.10;1674937;84;25855;-76
2021/03/18 04:32:43;;;;;;;24.43;11.65;;;;;;;-0.06;79.78;101002.87;1692224;83;26397;-76
2021/03/18 04:35:12;;;;;;;19.73;12.70;;;;;;;-0.03;79.81;101003.99;1651746;83;25879;-77
2021/03/18 04:37:39;;;;;;;22.25;12.33;;;;;;;0.04;79.79;101005.72;1669990;82;27551;-76
2021/03/18 04:40:11;;;;;;;20.00;11.45;;;;;;;0.09;79.80;101004.04;1702919;82;26010;-76
2021/03/18 04:42:39;;;;;;;19.15;12.20;;;;;;;0.13;79.79;100999.77;1700597;82;26548;-76
2021/03/18 04:45:09;;;;;;;18.77;11.20;;;;;;;0.11;79.61;101005.62;1662209;82;25925;-76
2021/03/18 04:47:39;;;;;;;17.67;12.55;;;;;;;0.14;79.63;101004.56;1668894;82;25926;-76
2021/03/18 04:50:13;;;;;;;21.23;12.10;;;;;;;0.17;79.75;101006.98;1694510;82;28624;-77
2021/03/18 04:52:41;;;;;;;18.92;11.33;;;;;;;0.18;79.59;101009.97;1720566;82;25712;-76
2021/03/18 04:55:11;;;;;;;20.05;11.78;;;;;;;0.18;79.62;101004.70;1702809;82;25755;-77
2021/03/18 04:57:43;;;;;;;16.48;10.72;;;;;;;0.16;79.59;101006.61;1717957;81;26203;-76
2021/03/18 05:00:12;;;;;;;16.65;11.25;;;;;;;0.18;79.63;101004.23;1696340;83;26388;-77
2021/03/18 05:02:43;;;;;;;18.52;10.95;;;;;;;0.21;79.69;101005.34;1668281;82;27567;-76
2021/03/18 05:05:15;;;;;;;17.42;10.93;;;;;;;0.25;79.68;101005.48;1699966;82;25810;-76
2021/03/18 05:07:45;;;;;;;20.17;11.00;;;;;;;0.20;79.56;100993.11;1722588;81;25872;-76
2021/03/18 05:10:17;;;;;;;18.70;12.13;;;;;;;0.20;79.56;100993.11;1675281;82;26380;-76
2021/03/18 05:12:45;;;;;;;15.55;10.08;;;;;;;0.27;79.66;100999.63;1691558;82;25860;-76
2021/03/18 05:15:15;;;;;;;19.15;12.58;;;;;;;0.21;79.62;100990.86;1699811;82;27538;-77
2021/03/18 05:17:43;;;;;;;21.60;12.03;;;;;;;0.26;79.63;100998.39;1717886;81;25898;-76
2021/03/18 05:20:14;;;;;;;20.62;12.03;;;;;;;0.26;79.63;101001.03;1681193;82;25814;-76
2021/03/18 05:22:45;;;;;;;16.65;11.15;;;;;;;0.29;79.69;100996.86;1678165;82;26413;-76
2021/03/18 05:25:14;;;;;;;19.40;11.43;;;;;;;0.30;79.72;100996.75;1718264;81;25900;-76
2021/03/18 05:27:42;;;;;;;15.40;10.53;;;;;;;0.31;79.91;100998.44;1673316;82;27120;-77
2021/03/18 05:30:12;;;;;;;22.87;12.68;;;;;;;0.29;79.97;101002.98;1697210;82;25818;-76
2021/03/18 05:32:40;;;;;;;18.12;11.15;;;;;;;0.32;80.14;101002.74;1681533;82;25851;-76
2021/03/18 05:35:10;;;;;;;16.17;10.58;;;;;;;0.31;80.12;101005.03;1714580;81;26406;-77
2021/03/18 05:37:37;;;;;;;16.37;11.08;;;;;;;0.32;80.23;101007.20;1717668;81;25955;-76
2021/03/18 05:40:09;;;;;;;16.15;10.80;;;;;;;0.33;80.32;101011.50;1709666;81;26939;-76
2021/03/18 05:42:38;;;;;;;18.40;10.75;;;;;;;0.29;80.33;101010.04;1699280;82;26444;-76
2021/03/18 05:45:09;;;;;;;16.85;10.82;;;;;;;0.27;80.51;101012.80;1726215;81;26456;-77
2021/03/18 05:47:37;;;;;;;17.00;11.57;;;;;;;0.27;80.65;101018.06;1702657;81;26519;-77
2021/03/18 05:50:10;;;;;;;20.72;10.90;;;;;;;0.29;80.77;101019.27;1698599;82;25431;-77
2021/03/18 05:52:38;;;;;;;15.65;10.82;;;;;;;0.30;80.82;101013.05;1705037;82;28452;-77
2021/03/18 05:55:08;;;;;;;13.80;8.98;;;;;;;0.32;80.84;101023.00;1710726;81;26691;-77
2021/03/18 05:57:39;;;;;;;15.15;10.13;;;;;;;0.32;80.97;101017.23;1701680;81;25375;-77
2021/03/18 06:00:11;;;;;;;15.88;9.65;;;;;;;0.33;80.86;101018.08;1712832;81;33126;-77
2021/03/18 06:02:40;;;;;;;16.37;9.00;;;;;;;0.35;80.93;101028.88;1691693;82;26436;-77
2021/03/18 06:05:16;;;;;;;15.90;10.45;;;;;;;0.37;80.94;101028.76;1707737;82;27943;-77
2021/03/18 06:07:47;;;;;;;14.80;8.83;;;;;;;0.38;80.96;101025.19;1695290;83;26018;-78
2021/03/18 06:10:19;;;;;;;12.65;7.87;;;;;;;0.39;80.96;101029.02;1679941;81;26026;-79
2021/03/18 06:12:51;;;;;;;14.10;8.88;;;;;;;0.40;81.00;101031.19;1707606;81;26002;-77
2021/03/18 06:15:20;;;;;;;13.38;8.90;;;;;;;0.40;80.99;101029.87;1745702;81;25809;-77
2021/03/18 06:17:48;;;;;;;13.05;7.87;;;;;;;0.43;80.98;101033.58;1707120;82;27455;-76
2021/03/18 06:20:23;;;;;;;13.98;8.65;;;;;;;0.46;80.86;101032.90;1692210;81;26537;-77
2021/03/18 06:22:52;;;;;;;12.28;7.33;;;;;;;0.48;80.63;101036.73;1701810;82;26454;-76
2021/03/18 06:25:31;;;;;;;13.50;7.90;;;;;;;0.45;80.47;101032.52;1717759;82;25834;-77
2021/03/18 06:28:29;;;;;;;9.93;6.67;;;;;;;0.44;80.19;101034.80;1697646;82;26405;-76
2021/03/18 06:31:10;;;;;;;11.18;7.33;;;;;;;0.44;80.16;101036.13;1718480;81;28399;-77
2021/03/18 06:33:50;;;;;;;10.20;6.45;;;;;;;0.48;80.18;101032.31;1722996;82;25715;-76
2021/03/18 06:36:31;;;;;;;9.80;6.87;;;;;;;0.52;80.27;101039.50;1699976;81;25911;-76
2021/03/18 06:39:07;;;;;;;;;;;;;;;0.56;80.21;101038.32;1692591;82;26384;-76
2021/03/18 06:41:47;;;;;;;11.70;6.40;;;;;;;0.61;80.39;101037.05;1743406;80;26039;-77
2021/03/18 06:44:28;;;;;;;13.80;6.92;;;;;;;0.67;80.42;101038.38;1733795;80;27610;-76
2021/03/18 06:47:08;;;;;;;9.98;6.72;;;;;;;0.77;80.39;101036.73;1770512;80;26467;-76
2021/03/18 06:49:35;;;;;;;8.30;5.97;;;;;;;0.84;79.89;101035.80;1768857;80;26465;-77
2021/03/18 06:52:10;;;;;;;9.30;6.72;;;;;;;0.93;80.02;101033.81;1703046;80;26444;-77
2021/03/18 06:54:42;;;;;;;12.88;7.50;;;;;;;1.01;79.82;101036.23;1746696;80;25934;-76
2021/03/18 06:57:11;;;;;;;5.83;3.87;;;;;;;1.06;79.65;101035.42;1725085;81;27343;-76
2021/03/18 06:59:42;;;;;;;8.38;5.53;;;;;;;1.09;78.87;101041.77;1772751;80;26527;-76
2021/03/18 07:02:19;;;;;;;8.48;5.92;;;;;;;1.07;78.36;101041.05;1729974;80;26102;-76
2021/03/18 07:04:50;;;;;;;6.37;5.35;;;;;;;1.08;78.50;101034.83;1776750;80;25909;-77
2021/03/18 07:07:22;;;;;;;8.03;5.47;;;;;;;1.08;78.39;101036.14;1729466;80;25991;-77
2021/03/18 07:09:55;;;;;;;6.72;4.90;;;;;;;1.17;77.92;101031.50;1777152;80;28412;-77
2021/03/18 07:12:31;;;;;;;9.13;5.30;;;;;;;1.28;77.91;101038.09;1675039;83;25913;-76
2021/03/18 07:15:01;;;;;;;6.72;4.55;;;;;;;1.33;76.80;101034.64;1702312;82;25799;-75
2021/03/18 07:17:38;;;;;;;6.50;4.47;;;;;;;1.33;76.77;101033.79;1725865;81;25975;-76
2021/03/18 07:20:23;;;;;;;7.42;4.47;;;;;;;1.32;76.51;101037.41;1734188;81;26535;-78
2021/03/18 07:22:55;;;;;;;6.40;4.10;;;;;;;1.31;76.36;101038.34;1669228;81;26882;-76
2021/03/18 07:25:27;;;;;;;5.53;4.17;;;;;;;1.32;76.81;101031.66;1706554;82;26043;-76
2021/03/18 07:28:02;;;;;;;5.90;3.70;;;;;;;1.35;76.00;101036.68;1713390;81;25859;-75
2021/03/18 07:30:33;;;;;;;6.75;4.35;;;;;;;1.35;75.97;101037.15;1714884;81;26426;-75
2021/03/18 07:33:03;;;;;;;5.37;3.85;;;;;;;1.37;76.16;101033.44;1690570;81;25878;-75
2021/03/18 07:35:33;;;;;;;4.92;4.20;;;;;;;1.43;75.98;101031.64;1710910;81;27540;-75
2021/03/18 07:38:02;;;;;;;4.05;3.65;;;;;;;1.49;75.48;101038.27;1732770;81;25896;-75
2021/03/18 07:40:30;;;;;;;5.75;3.70;;;;;;;1.53;75.48;101033.11;1730023;81;25755;-76
2021/03/18 07:45:37;;;;;;;5.20;3.47;;;;;;;1.72;75.60;101030.72;1819246;77;26240;-76
2021/03/18 07:48:09;;;;;;;5.85;3.52;;;;;;;1.73;74.36;101033.73;1753949;80;26373;-76
2021/03/18 07:50:39;;;;;;;5.55;3.55;;;;;;;1.76;74.22;101025.55;1780088;80;27642;-76
2021/03/18 07:53:11;;;;;;;4.70;3.10;;;;;;;1.77;73.72;101025.08;1758171;80;26432;-76
2021/03/18 07:55:40;;;;;;;4.42;3.00;;;;;;;1.77;73.59;101025.08;1689473;83;25754;-76
2021/03/18 07:58:09;;;;;;;5.33;3.98;;;;;;;1.77;73.10;101023.30;1690239;82;25882;-76
2021/03/18 08:00:44;;;;;;;5.43;3.93;;;;;;;1.82;74.20;101014.50;1743447;81;26365;-76
2021/03/18 08:03:29;;;;;;;5.45;3.98;;;;;;;1.94;74.17;101011.39;1719231;81;27632;-78
2021/03/18 08:05:59;;;;;;;12.33;4.83;;;;;;;2.10;75.16;101007.87;1693105;81;26162;-77
2021/03/18 08:08:39;;;;;;;7.00;3.60;;;;;;;2.20;72.77;101018.08;1698294;82;25887;-76
2021/03/18 08:11:15;;;;;;;4.92;3.45;;;;;;;2.19;72.32;101013.27;1713275;83;25758;-77
2021/03/18 08:13:45;;;;;;;5.40;3.20;;;;;;;2.18;72.25;101012.08;1686741;81;26452;-77
2021/03/18 08:16:34;;;;;;;4.35;3.50;;;;;;;2.18;71.83;101010.77;1703254;82;28421;-77
2021/03/18 08:19:04;;;;;;;4.83;3.52;;;;;;;2.23;72.21;101006.77;1730366;82;26305;-77
2021/03/18 08:21:53;;;;;;;6.47;3.75;;;;;;;2.34;71.93;101009.39;1708686;82;34083;-77
2021/03/18 08:24:24;;;;;;;5.75;3.62;;;;;;;2.51;71.80;101007.16;1689592;82;25809;-77
2021/03/18 08:27:01;;;;;;;5.03;3.42;;;;;;;2.59;71.74;100995.00;1708601;82;25986;-78
2021/03/18 08:29:47;;;;;;;5.62;2.72;;;;;;;2.62;70.93;100995.23;1717896;82;27354;-77
2021/03/18 08:32:30;;;;;;;3.05;2.75;;;;;;;2.67;70.71;100990.41;1725427;82;25854;-77
2021/03/18 08:35:01;;;;;;;5.47;3.27;;;;;;;2.72;68.70;100995.67;1679967;82;26598;-77
2021/03/18 08:37:44;;;;;;;4.65;3.05;;;;;;;2.79;69.06;101006.11;1710077;81;25828;-77
2021/03/18 08:40:26;;;;;;;7.33;3.47;;;;;;;2.75;69.25;100999.39;1701336;81;25807;-78
2021/03/18 08:43:06;;;;;;;6.78;3.00;;;;;;;2.69;69.41;100997.73;1732970;81;27652;-77
2021/03/18 08:45:37;;;;;;;5.85;3.50;;;;;;;2.61;68.52;101008.12;1740898;81;25855;-77
2021/03/18 08:48:12;;;;;;;4.78;3.35;;;;;;;2.42;68.24;101002.66;1678690;82;26451;-77
2021/03/18 08:50:45;;;;;;;5.00;3.47;;;;;;;2.26;67.93;101005.69;1705140;81;25766;-77
2021/03/18 08:53:29;;;;;;;5.85;3.50;;;;;;;2.12;68.84;101006.78;1735133;80;26568;-76
2021/03/18 08:55:56;;;;;;;5.47;3.10;;;;;;;2.00;68.55;101003.81;1686623;84;27499;-76
2021/03/18 08:58:24;;;;;;;4.55;3.05;;;;;;;1.98;69.07;101004.89;1678712;82;25715;-76
2021/03/18 09:00:51;;;;;;;4.12;2.90;;;;;;;1.94;69.56;101000.34;1698513;82;25907;-76
2021/03/18 09:03:21;;;;;;;7.72;3.05;;;;;;;1.96;69.88;101005.02;1727392;82;26059;-76
2021/03/18 09:05:55;;;;;;;5.65;3.47;;;;;;;2.08;70.37;101004.51;1719349;80;25751;-76
2021/03/18 09:08:26;;;;;;;4.22;2.50;;;;;;;2.21;69.88;100994.64;1729592;80;27548;-77
2021/03/18 09:10:54;;;;;;;5.85;3.05;;;;;;;2.26;69.20;100999.93;1757989;80;25943;-77
2021/03/18 09:13:24;;;;;;;3.05;2.22;;;;;;;2.29;69.09;100996.17;1771916;80;25796;-76
2021/03/18 09:15:54;;;;;;;3.33;2.70;;;;;;;2.26;67.73;100992.48;1727064;81;25877;-77
2021/03/18 09:18:30;;;;;;;3.22;2.55;;;;;;;2.23;67.27;100996.20;1750256;80;25827;-76
2021/03/18 09:21:05;;;;;;;5.22;2.47;;;;;;;2.20;67.92;100993.80;1748170;78;28266;-77
2021/03/18 09:23:37;;;;;;;3.02;2.50;;;;;;;2.18;68.60;100998.36;1773913;80;25737;-77
2021/03/18 09:26:10;;;;;;;4.50;3.12;;;;;;;2.19;68.49;101001.38;1778179;80;25763;-75
2021/03/18 09:28:47;;;;;;;4.75;3.60;;;;;;;2.17;69.22;101001.98;1729569;80;25805;-76
2021/03/18 09:31:23;;;;;;;5.62;3.80;;;;;;;2.18;69.72;101001.52;1777990;80;25741;-77
2021/03/18 09:33:54;;;;;;;5.83;3.80;;;;;;;2.17;69.29;101003.31;1771953;78;27585;-77
2021/03/18 09:36:28;;;;;;;6.25;3.83;;;;;;;2.21;69.91;101005.21;1718390;81;25845;-76
2021/03/18 09:39:13;;;;;;;5.28;4.03;;;;;;;2.26;70.25;100999.08;1718082;81;25814;-76
2021/03/18 09:41:49;;;;;;;7.08;4.85;;;;;;;2.31;70.22;100995.09;1720267;81;25957;-77
2021/03/18 09:44:23;;;;;;;9.88;5.87;;;;;;;2.40;70.46;101002.75;1721123;82;26140;-77
2021/03/18 09:46:54;;;;;;;7.25;4.72;;;;;;;2.46;70.86;100996.96;1682704;81;28487;-77
2021/03/18 09:49:41;;;;;;;7.05;4.60;;;;;;;2.49;70.83;100992.77;1704614;81;26478;-76
2021/03/18 09:52:13;;;;;;;6.55;4.83;;;;;;;2.57;71.29;100990.80;1764649;80;25806;-77
2021/03/18 09:54:40;;;;;;;6.20;4.17;;;;;;;2.65;70.98;100989.20;1761930;81;26401;-77
2021/03/18 09:57:11;;;;;;;10.68;5.47;;;;;;;2.67;69.64;100991.73;1722461;81;26162;-77
2021/03/18 09:59:39;;;;;;;7.00;4.58;;;;;;;2.67;70.33;100989.94;1735553;81;27720;-77
2021/03/18 10:02:07;;;;;;;6.00;4.42;;;;;;;2.76;70.38;100990.98;1742954;81;25945;-77
2021/03/18 10:04:39;;;;;;;5.83;4.92;;;;;;;2.83;69.73;100991.66;1757977;81;25747;-77
2021/03/18 10:07:08;;;;;;;5.80;3.98;;;;;;;2.81;69.30;100988.77;1732324;81;25862;-76
2021/03/18 10:09:42;;;;;;;9.10;5.35;;;;;;;2.78;68.67;100986.41;1735523;81;26084;-77
2021/03/18 10:12:17;;;;;;;6.40;5.05;;;;;;;2.77;70.28;100985.56;1734963;81;28246;-77
2021/03/18 10:14:54;;;;;;;7.47;4.97;;;;;;;2.86;70.44;100990.09;1761780;81;25706;-77
2021/03/18 10:17:28;;;;;;;8.78;5.03;;;;;;;2.91;69.48;100990.52;1708266;81;25864;-76
2021/03/18 10:20:12;;;;;;;8.88;5.65;;;;;;;2.95;69.00;100993.27;1734377;81;25758;-77
2021/03/18 10:25:23;;;;;;;6.03;3.90;;;;;;;2.98;68.25;100977.62;1832312;77;25794;-76
2021/03/18 10:28:04;;;;;;;6.92;4.60;;;;;;;2.98;68.00;100974.97;1806061;78;26396;-77
2021/03/18 10:30:33;;;;;;;5.65;4.15;;;;;;;3.04;68.23;100977.09;1798136;78;28461;-77
2021/03/18 10:33:23;;;;;;;4.95;3.98;;;;;;;3.02;66.86;100969.77;1752981;78;25912;-76
2021/03/18 10:35:58;;;;;;;7.40;3.75;;;;;;;2.95;66.57;100977.39;1790648;79;25769;-77
2021/03/18 10:38:39;;;;;;;6.75;3.80;;;;;;;2.87;66.51;100971.91;1770146;78;25645;-77
2021/03/18 10:41:12;;;;;;;;;;;;;;;2.93;66.84;100976.68;1793866;79;26385;-76
2021/03/18 10:43:45;;;;;;;4.60;3.20;;;;;;;3.09;66.43;100960.36;1762516;79;29629;-77
2021/03/18 10:46:16;;;;;;;4.97;3.33;;;;;;;3.14;65.13;100964.78;1743048;79;25720;-77
2021/03/18 10:48:47;;;;;;;4.37;3.92;;;;;;;3.25;65.76;100958.06;1762710;79;25900;-77
2021/03/18 10:51:15;;;;;;;;;;;;;;;3.32;66.26;100961.03;1769646;79;26168;-76
2021/03/18 10:53:45;;;;;;;3.40;3.00;;;;;;;3.31;65.74;100952.75;1743691;78;26091;-77
2021/03/18 10:56:17;;;;;;;5.53;4.08;;;;;;;3.35;66.55;100956.81;1766386;78;28827;-77
2021/03/18 10:58:46;;;;;;;4.17;3.08;;;;;;;3.40;64.96;100947.48;1790786;79;25667;-77
2021/03/18 11:01:22;;;;;;;3.95;2.83;;;;;;;3.38;64.29;100951.27;1740953;80;25808;-77
2021/03/18 11:03:49;;;;;;;5.10;2.80;;;;;;;3.39;64.81;100956.89;1772583;78;26367;-77
2021/03/18 11:06:23;;;;;;;4.40;3.65;;;;;;;3.42;64.61;100956.13;1771282;78;26448;-76
2021/03/18 11:08:53;;;;;;;7.40;3.50;;;;;;;3.38;64.49;100953.91;1794956;78;28493;-77
2021/03/18 11:11:28;;;;;;;4.03;2.90;;;;;;;3.37;64.97;100950.41;1729426;80;26248;-76
2021/03/18 11:14:12;;;;;;;5.40;2.70;;;;;;;3.31;62.65;100948.78;1766664;80;25917;-76
2021/03/18 11:16:41;;;;;;;4.12;3.08;;;;;;;3.23;62.78;100943.31;1770638;78;26465;-76
2021/03/18 11:19:12;;;;;;;2.87;2.12;;;;;;;3.21;63.02;100943.42;1799815;78;26106;-77
2021/03/18 11:21:44;;;;;;;3.87;3.05;;;;;;;3.21;62.28;100944.74;1742659;78;28458;-78
2021/03/18 11:24:19;;;;;;;6.85;3.30;;;;;;;3.25;63.06;100935.56;1758227;79;25889;-77
2021/03/18 11:27:00;;;;;;;4.78;3.08;;;;;;;3.36;63.69;100937.32;1766136;80;25799;-77
2021/03/18 11:29:31;;;;;;;3.60;2.65;;;;;;;3.44;62.85;100933.04;1792711;79;26527;-77
2021/03/18 11:32:03;;;;;;;3.52;3.10;;;;;;;3.55;62.74;100921.00;1733647;79;25848;-77
2021/03/18 11:34:35;;;;;;;3.75;2.90;;;;;;;3.73;63.30;100915.91;1772917;79;27478;-77
2021/03/18 11:37:07;;;;;;;4.50;3.12;;;;;;;3.95;63.60;100913.04;1770409;78;26059;-77
2021/03/18 11:39:35;;;;;;;3.70;2.55;;;;;;;4.16;62.66;100903.64;1789943;79;25670;-78
2021/03/18 11:42:03;;;;;;;3.42;2.47;;;;;;;4.23;59.48;100906.09;1739820;79;25859;-77
2021/03/18 11:44:32;;;;;;;4.33;2.25;;;;;;;4.16;59.72;100904.48;1741318;79;26322;-77
2021/03/18 11:47:09;;;;;;;4.62;2.50;;;;;;;4.06;59.11;100898.34;1770356;80;28701;-77
2021/03/18 11:49:39;;;;;;;2.35;2.02;;;;;;;3.96;59.21;100897.98;1776140;78;25941;-77
2021/03/18 11:52:08;;;;;;;2.50;2.30;;;;;;;3.87;59.16;100904.42;1752180;78;26245;-77
2021/03/18 11:54:37;;;;;;;4.75;2.85;;;;;;;3.80;59.99;100901.15;1718734;81;26522;-77